sensor_id;sensor_type;location;lat;lon;timestamp;P1;durP1;ratioP1;P2;durP2;ratioP2
29006;SDS011;16104;48.642;9.008;2022-11-20T00:03:57;8.00;;;3.40;;
29006;SDS011;16104;48.642;9.008;2022-11-20T00:08:54;4.20;;;3.15;;
29006;SDS011;16104;48.642;9.008;2022-11-20T00:13:52;3.78;;;2.88;;
29006;SDS011;16104;48.642;9.008;2022-11-20T00:18:49;5.20;;;2.72;;
29006;SDS011;16104;48.642;9.008;2022-11-20T00:23:45;4.45;;;2.65;;
29006;SDS011;16104;48.642;9.008;2022-11-20T00:28:41;3.15;;;2.63;;
29006;SDS011;16104;48.642;9.008;2022-11-20T00:33:37;5.68;;;3.03;;
29006;SDS011;16104;48.642;9.008;2022-11-20T00:38:33;3.67;;;2.90;;
29006;SDS011;16104;48.642;9.008;2022-11-20T00:43:29;4.40;;;3.00;;
29006;SDS011;16104;48.642;9.008;2022-11-20T00:48:25;6.75;;;2.90;;
29006;SDS011;16104;48.642;9.008;2022-11-20T00:53:21;3.72;;;3.03;;
29006;SDS011;16104;48.642;9.008;2022-11-20T00:58:17;3.40;;;2.60;;
29006;SDS011;16104;48.642;9.008;2022-11-20T02:04:17;3.92;;;3.53;;
29006;SDS011;16104;48.642;9.008;2022-11-20T02:09:14;4.10;;;3.70;;
29006;SDS011;16104;48.642;9.008;2022-11-20T02:14:10;5.10;;;4.22;;
29006;SDS011;16104;48.642;9.008;2022-11-20T03:04:54;4.55;;;3.90;;
29006;SDS011;16104;48.642;9.008;2022-11-20T03:09:50;5.43;;;4.28;;
29006;SDS011;16104;48.642;9.008;2022-11-20T03:14:46;6.18;;;4.38;;
29006;SDS011;16104;48.642;9.008;2022-11-20T04:00:24;5.72;;;3.92;;
29006;SDS011;16104;48.642;9.008;2022-11-20T04:05:20;6.28;;;4.25;;
29006;SDS011;16104;48.642;9.008;2022-11-20T04:10:15;7.07;;;3.80;;
29006;SDS011;16104;48.642;9.008;2022-11-20T04:15:11;5.82;;;4.20;;
29006;SDS011;16104;48.642;9.008;2022-11-20T04:20:07;5.88;;;4.00;;
29006;SDS011;16104;48.642;9.008;2022-11-20T04:25:03;6.65;;;4.35;;
29006;SDS011;16104;48.642;9.008;2022-11-20T04:29:59;6.20;;;4.07;;
29006;SDS011;16104;48.642;9.008;2022-11-20T04:34:54;5.57;;;4.05;;
29006;SDS011;16104;48.642;9.008;2022-11-20T04:39:50;5.97;;;3.95;;
29006;SDS011;16104;48.642;9.008;2022-11-20T04:44:45;4.82;;;3.90;;
29006;SDS011;16104;48.642;9.008;2022-11-20T04:49:40;5.63;;;4.03;;
29006;SDS011;16104;48.642;9.008;2022-11-20T04:54:36;4.72;;;3.70;;
29006;SDS011;16104;48.642;9.008;2022-11-20T04:59:32;6.32;;;4.07;;
29006;SDS011;16104;48.642;9.008;2022-11-20T05:04:27;4.60;;;3.67;;
29006;SDS011;16104;48.642;9.008;2022-11-20T05:09:22;4.13;;;3.25;;
29006;SDS011;16104;48.642;9.008;2022-11-20T05:14:18;5.03;;;3.75;;
29006;SDS011;16104;48.642;9.008;2022-11-20T05:19:13;4.15;;;3.72;;
29006;SDS011;16104;48.642;9.008;2022-11-20T05:24:09;5.85;;;3.60;;
29006;SDS011;16104;48.642;9.008;2022-11-20T05:29:05;4.03;;;3.22;;
29006;SDS011;16104;48.642;9.008;2022-11-20T05:34:00;5.97;;;3.58;;
29006;SDS011;16104;48.642;9.008;2022-11-20T05:38:56;4.55;;;3.30;;
29006;SDS011;16104;48.642;9.008;2022-11-20T05:43:51;4.43;;;3.35;;
29006;SDS011;16104;48.642;9.008;2022-11-20T05:48:47;3.67;;;3.25;;
29006;SDS011;16104;48.642;9.008;2022-11-20T05:53:42;4.07;;;3.13;;
29006;SDS011;16104;48.642;9.008;2022-11-20T05:58:38;4.82;;;3.03;;
29006;SDS011;16104;48.642;9.008;2022-11-20T06:03:34;4.97;;;3.15;;
29006;SDS011;16104;48.642;9.008;2022-11-20T06:08:31;5.20;;;3.35;;
29006;SDS011;16104;48.642;9.008;2022-11-20T06:13:27;3.38;;;3.08;;
29006;SDS011;16104;48.642;9.008;2022-11-20T06:18:22;4.07;;;3.42;;
29006;SDS011;16104;48.642;9.008;2022-11-20T06:23:18;6.80;;;3.40;;
29006;SDS011;16104;48.642;9.008;2022-11-20T06:28:13;4.95;;;3.20;;
29006;SDS011;16104;48.642;9.008;2022-11-20T06:33:10;4.63;;;3.05;;
29006;SDS011;16104;48.642;9.008;2022-11-20T06:38:06;5.70;;;3.28;;
29006;SDS011;16104;48.642;9.008;2022-11-20T06:43:01;4.50;;;2.90;;
29006;SDS011;16104;48.642;9.008;2022-11-20T06:47:57;5.28;;;3.22;;
29006;SDS011;16104;48.642;9.008;2022-11-20T06:52:53;3.60;;;2.90;;
29006;SDS011;16104;48.642;9.008;2022-11-20T06:57:50;3.53;;;3.00;;
29006;SDS011;16104;48.642;9.008;2022-11-20T07:02:45;5.00;;;3.60;;
29006;SDS011;16104;48.642;9.008;2022-11-20T07:07:41;4.68;;;3.13;;
29006;SDS011;16104;48.642;9.008;2022-11-20T07:12:37;3.33;;;2.78;;
29006;SDS011;16104;48.642;9.008;2022-11-20T07:17:32;3.70;;;2.95;;
29006;SDS011;16104;48.642;9.008;2022-11-20T07:22:28;4.10;;;2.60;;
29006;SDS011;16104;48.642;9.008;2022-11-20T07:27:23;3.15;;;2.85;;
29006;SDS011;16104;48.642;9.008;2022-11-20T07:32:19;5.55;;;3.03;;
29006;SDS011;16104;48.642;9.008;2022-11-20T07:37:14;4.40;;;3.10;;
29006;SDS011;16104;48.642;9.008;2022-11-20T07:42:10;3.67;;;2.90;;
29006;SDS011;16104;48.642;9.008;2022-11-20T07:47:07;3.47;;;2.70;;
29006;SDS011;16104;48.642;9.008;2022-11-20T07:52:02;4.22;;;3.17;;
29006;SDS011;16104;48.642;9.008;2022-11-20T07:56:58;4.70;;;3.70;;
29006;SDS011;16104;48.642;9.008;2022-11-20T08:01:53;5.93;;;3.20;;
29006;SDS011;16104;48.642;9.008;2022-11-20T08:06:49;4.22;;;2.80;;
29006;SDS011;16104;48.642;9.008;2022-11-20T08:11:46;2.60;;;2.40;;
29006;SDS011;16104;48.642;9.008;2022-11-20T08:17:01;4.35;;;2.55;;
29006;SDS011;16104;48.642;9.008;2022-11-20T08:21:56;3.75;;;2.90;;
29006;SDS011;16104;48.642;9.008;2022-11-20T08:26:52;4.25;;;2.60;;
29006;SDS011;16104;48.642;9.008;2022-11-20T08:31:47;4.38;;;2.60;;
29006;SDS011;16104;48.642;9.008;2022-11-20T08:36:43;3.40;;;2.28;;
29006;SDS011;16104;48.642;9.008;2022-11-20T08:41:38;3.13;;;2.22;;
29006;SDS011;16104;48.642;9.008;2022-11-20T08:46:36;3.03;;;2.08;;
29006;SDS011;16104;48.642;9.008;2022-11-20T08:51:34;2.03;;;1.83;;
29006;SDS011;16104;48.642;9.008;2022-11-20T08:56:30;2.08;;;1.80;;
29006;SDS011;16104;48.642;9.008;2022-11-20T09:01:25;3.38;;;1.90;;
29006;SDS011;16104;48.642;9.008;2022-11-20T09:06:22;1.75;;;1.60;;
29006;SDS011;16104;48.642;9.008;2022-11-20T09:11:17;1.50;;;1.38;;
29006;SDS011;16104;48.642;9.008;2022-11-20T09:16:13;1.50;;;1.23;;
29006;SDS011;16104;48.642;9.008;2022-11-20T09:21:11;1.40;;;1.30;;
29006;SDS011;16104;48.642;9.008;2022-11-20T09:26:09;2.50;;;1.40;;
29006;SDS011;16104;48.642;9.008;2022-11-20T09:31:06;2.33;;;1.65;;
29006;SDS011;16104;48.642;9.008;2022-11-20T09:36:03;3.17;;;1.42;;
29006;SDS011;16104;48.642;9.008;2022-11-20T09:41:05;1.50;;;1.20;;
29006;SDS011;16104;48.642;9.008;2022-11-20T09:46:27;1.83;;;1.13;;
29006;SDS011;16104;48.642;9.008;2022-11-20T09:51:39;1.05;;;0.88;;
29006;SDS011;16104;48.642;9.008;2022-11-20T09:56:57;1.30;;;1.20;;
29006;SDS011;16104;48.642;9.008;2022-11-20T10:01:55;0.73;;;0.73;;
29006;SDS011;16104;48.642;9.008;2022-11-20T10:12:12;0.63;;;0.63;;
29006;SDS011;16104;48.642;9.008;2022-11-20T10:17:27;1.20;;;0.70;;
29006;SDS011;16104;48.642;9.008;2022-11-20T10:33:03;1.92;;;0.70;;
29006;SDS011;16104;48.642;9.008;2022-11-20T10:38:05;1.15;;;0.77;;
29006;SDS011;16104;48.642;9.008;2022-11-20T10:43:10;1.10;;;0.95;;
29006;SDS011;16104;48.642;9.008;2022-11-20T10:48:11;1.20;;;0.80;;
29006;SDS011;16104;48.642;9.008;2022-11-20T10:53:32;2.20;;;1.25;;
29006;SDS011;16104;48.642;9.008;2022-11-20T10:58:42;2.67;;;1.33;;
29006;SDS011;16104;48.642;9.008;2022-11-20T11:03:53;2.45;;;1.25;;
29006;SDS011;16104;48.642;9.008;2022-11-20T11:08:53;1.83;;;1.20;;
29006;SDS011;16104;48.642;9.008;2022-11-20T11:13:53;2.33;;;1.20;;
29006;SDS011;16104;48.642;9.008;2022-11-20T11:19:14;2.25;;;1.20;;
29006;SDS011;16104;48.642;9.008;2022-11-20T11:24:15;3.58;;;1.20;;
29006;SDS011;16104;48.642;9.008;2022-11-20T11:29:17;1.75;;;1.20;;
29006;SDS011;16104;48.642;9.008;2022-11-20T11:34:14;2.55;;;1.40;;
29006;SDS011;16104;48.642;9.008;2022-11-20T11:39:13;2.15;;;1.02;;
29006;SDS011;16104;48.642;9.008;2022-11-20T11:44:18;2.80;;;1.30;;
29006;SDS011;16104;48.642;9.008;2022-11-20T11:49:38;1.33;;;1.10;;
29006;SDS011;16104;48.642;9.008;2022-11-20T12:04:54;4.22;;;1.60;;
29006;SDS011;16104;48.642;9.008;2022-11-20T12:09:54;1.55;;;1.10;;
29006;SDS011;16104;48.642;9.008;2022-11-20T12:14:53;4.28;;;1.10;;
29006;SDS011;16104;48.642;9.008;2022-11-20T12:19:50;2.60;;;1.08;;
29006;SDS011;16104;48.642;9.008;2022-11-20T12:24:52;1.88;;;0.90;;
29006;SDS011;16104;48.642;9.008;2022-11-20T12:30:10;3.05;;;1.10;;
29006;SDS011;16104;48.642;9.008;2022-11-20T12:45:49;2.10;;;0.90;;
29006;SDS011;16104;48.642;9.008;2022-11-20T12:51:12;1.73;;;1.17;;
29006;SDS011;16104;48.642;9.008;2022-11-20T13:06:50;2.90;;;1.00;;
29006;SDS011;16104;48.642;9.008;2022-11-20T13:12:05;2.97;;;1.00;;
29006;SDS011;16104;48.642;9.008;2022-11-20T13:17:18;1.77;;;0.88;;
29006;SDS011;16104;48.642;9.008;2022-11-20T13:27:22;2.72;;;1.35;;
29006;SDS011;16104;48.642;9.008;2022-11-20T13:32:20;1.63;;;0.90;;
29006;SDS011;16104;48.642;9.008;2022-11-20T13:37:29;3.20;;;1.10;;
29006;SDS011;16104;48.642;9.008;2022-11-20T13:42:27;3.58;;;1.00;;
29006;SDS011;16104;48.642;9.008;2022-11-20T13:47:26;2.33;;;1.20;;
29006;SDS011;16104;48.642;9.008;2022-11-20T14:02:52;2.47;;;0.95;;
29006;SDS011;16104;48.642;9.008;2022-11-20T14:08:03;2.42;;;1.27;;
29006;SDS011;16104;48.642;9.008;2022-11-20T14:13:10;2.78;;;1.20;;
29006;SDS011;16104;48.642;9.008;2022-11-20T14:18:19;2.00;;;1.40;;
29006;SDS011;16104;48.642;9.008;2022-11-20T14:23:23;2.45;;;1.20;;
29006;SDS011;16104;48.642;9.008;2022-11-20T14:28:26;2.15;;;1.30;;
29006;SDS011;16104;48.642;9.008;2022-11-20T14:33:25;4.85;;;1.08;;
29006;SDS011;16104;48.642;9.008;2022-11-20T14:38:22;2.28;;;1.08;;
29006;SDS011;16104;48.642;9.008;2022-11-20T14:48:21;3.43;;;1.17;;
29006;SDS011;16104;48.642;9.008;2022-11-20T14:53:24;2.28;;;1.27;;
29006;SDS011;16104;48.642;9.008;2022-11-20T14:58:21;1.42;;;1.20;;
29006;SDS011;16104;48.642;9.008;2022-11-20T15:03:18;2.63;;;1.40;;
29006;SDS011;16104;48.642;9.008;2022-11-20T15:08:14;1.63;;;1.20;;
29006;SDS011;16104;48.642;9.008;2022-11-20T15:13:11;4.00;;;1.50;;
29006;SDS011;16104;48.642;9.008;2022-11-20T15:18:11;2.45;;;1.80;;
29006;SDS011;16104;48.642;9.008;2022-11-20T15:23:09;1.80;;;1.50;;
29006;SDS011;16104;48.642;9.008;2022-11-20T15:28:21;3.75;;;1.60;;
29006;SDS011;16104;48.642;9.008;2022-11-20T15:33:30;1.63;;;1.50;;
29006;SDS011;16104;48.642;9.008;2022-11-20T15:38:27;2.50;;;1.40;;
29006;SDS011;16104;48.642;9.008;2022-11-20T15:43:23;1.90;;;1.50;;
29006;SDS011;16104;48.642;9.008;2022-11-20T15:48:23;2.35;;;1.88;;
29006;SDS011;16104;48.642;9.008;2022-11-20T15:53:22;2.38;;;1.80;;
29006;SDS011;16104;48.642;9.008;2022-11-20T15:58:17;5.30;;;2.28;;
29006;SDS011;16104;48.642;9.008;2022-11-20T16:03:13;2.63;;;1.63;;
29006;SDS011;16104;48.642;9.008;2022-11-20T16:08:10;2.63;;;1.75;;
29006;SDS011;16104;48.642;9.008;2022-11-20T16:13:16;4.22;;;1.88;;
29006;SDS011;16104;48.642;9.008;2022-11-20T16:18:31;5.15;;;1.80;;
29006;SDS011;16104;48.642;9.008;2022-11-20T16:23:27;2.88;;;1.77;;
29006;SDS011;16104;48.642;9.008;2022-11-20T16:28:23;11.07;;;1.98;;
29006;SDS011;16104;48.642;9.008;2022-11-20T16:33:19;2.50;;;1.90;;
29006;SDS011;16104;48.642;9.008;2022-11-20T16:38:15;4.15;;;2.20;;
29006;SDS011;16104;48.642;9.008;2022-11-20T16:43:10;4.75;;;2.80;;
29006;SDS011;16104;48.642;9.008;2022-11-20T16:48:12;3.75;;;2.63;;
29006;SDS011;16104;48.642;9.008;2022-11-20T16:53:09;2.58;;;2.13;;
29006;SDS011;16104;48.642;9.008;2022-11-20T16:58:04;4.18;;;2.15;;
29006;SDS011;16104;48.642;9.008;2022-11-20T17:03:00;4.13;;;2.80;;
29006;SDS011;16104;48.642;9.008;2022-11-20T17:07:56;4.93;;;3.00;;
29006;SDS011;16104;48.642;9.008;2022-11-20T17:12:51;6.88;;;2.80;;
29006;SDS011;16104;48.642;9.008;2022-11-20T17:17:47;5.07;;;2.53;;
29006;SDS011;16104;48.642;9.008;2022-11-20T17:22:42;2.70;;;1.90;;
29006;SDS011;16104;48.642;9.008;2022-11-20T17:27:38;5.20;;;2.75;;
29006;SDS011;16104;48.642;9.008;2022-11-20T17:32:33;5.38;;;2.80;;
29006;SDS011;16104;48.642;9.008;2022-11-20T17:37:29;4.53;;;2.10;;
29006;SDS011;16104;48.642;9.008;2022-11-20T17:42:24;5.28;;;2.20;;
29006;SDS011;16104;48.642;9.008;2022-11-20T17:47:23;5.18;;;2.25;;
29006;SDS011;16104;48.642;9.008;2022-11-20T17:52:20;2.47;;;1.75;;
29006;SDS011;16104;48.642;9.008;2022-11-20T17:57:16;5.20;;;3.30;;
29006;SDS011;16104;48.642;9.008;2022-11-20T18:02:30;3.50;;;2.17;;
29006;SDS011;16104;48.642;9.008;2022-11-20T18:07:25;3.30;;;2.20;;
29006;SDS011;16104;48.642;9.008;2022-11-20T18:12:21;10.00;;;2.28;;
29006;SDS011;16104;48.642;9.008;2022-11-20T18:17:16;3.70;;;2.00;;
29006;SDS011;16104;48.642;9.008;2022-11-20T18:22:13;4.40;;;1.95;;
29006;SDS011;16104;48.642;9.008;2022-11-20T18:27:17;4.93;;;2.03;;
29006;SDS011;16104;48.642;9.008;2022-11-20T18:32:14;3.42;;;1.95;;
29006;SDS011;16104;48.642;9.008;2022-11-20T18:37:10;3.67;;;1.80;;
29006;SDS011;16104;48.642;9.008;2022-11-20T18:42:13;3.58;;;2.17;;
29006;SDS011;16104;48.642;9.008;2022-11-20T18:47:33;3.53;;;1.67;;
29006;SDS011;16104;48.642;9.008;2022-11-20T18:52:32;5.57;;;2.35;;
29006;SDS011;16104;48.642;9.008;2022-11-20T18:57:31;4.88;;;1.70;;
29006;SDS011;16104;48.642;9.008;2022-11-20T19:02:27;12.10;;;7.20;;
29006;SDS011;16104;48.642;9.008;2022-11-20T19:07:23;2.72;;;2.38;;
29006;SDS011;16104;48.642;9.008;2022-11-20T19:12:19;2.55;;;1.50;;
29006;SDS011;16104;48.642;9.008;2022-11-20T19:17:15;1.80;;;1.10;;
29006;SDS011;16104;48.642;9.008;2022-11-20T19:22:11;1.23;;;1.10;;
29006;SDS011;16104;48.642;9.008;2022-11-20T19:27:07;1.45;;;0.90;;
29006;SDS011;16104;48.642;9.008;2022-11-20T19:32:03;0.90;;;0.70;;
29006;SDS011;16104;48.642;9.008;2022-11-20T19:36:58;0.77;;;0.77;;
29006;SDS011;16104;48.642;9.008;2022-11-20T19:41:55;1.55;;;1.00;;
29006;SDS011;16104;48.642;9.008;2022-11-20T19:46:50;1.45;;;0.82;;
29006;SDS011;16104;48.642;9.008;2022-11-20T19:51:46;1.42;;;0.90;;
29006;SDS011;16104;48.642;9.008;2022-11-20T19:56:43;0.70;;;0.57;;
29006;SDS011;16104;48.642;9.008;2022-11-20T20:01:39;0.90;;;0.82;;
29006;SDS011;16104;48.642;9.008;2022-11-20T20:06:35;1.13;;;0.50;;
29006;SDS011;16104;48.642;9.008;2022-11-20T20:11:33;0.95;;;0.60;;
29006;SDS011;16104;48.642;9.008;2022-11-20T20:16:29;2.00;;;0.85;;
29006;SDS011;16104;48.642;9.008;2022-11-20T20:21:25;1.30;;;0.90;;
29006;SDS011;16104;48.642;9.008;2022-11-20T20:26:21;0.80;;;0.70;;
29006;SDS011;16104;48.642;9.008;2022-11-20T20:31:19;0.75;;;0.70;;
29006;SDS011;16104;48.642;9.008;2022-11-20T20:36:16;1.55;;;0.85;;
29006;SDS011;16104;48.642;9.008;2022-11-20T20:41:13;1.13;;;0.88;;
29006;SDS011;16104;48.642;9.008;2022-11-20T20:46:12;0.80;;;0.67;;
29006;SDS011;16104;48.642;9.008;2022-11-20T20:51:07;1.00;;;0.70;;
29006;SDS011;16104;48.642;9.008;2022-11-20T20:56:03;0.60;;;0.60;;
29006;SDS011;16104;48.642;9.008;2022-11-20T21:01:03;0.98;;;0.80;;
29006;SDS011;16104;48.642;9.008;2022-11-20T21:06:00;0.98;;;0.80;;
29006;SDS011;16104;48.642;9.008;2022-11-20T21:11:01;0.88;;;0.70;;
29006;SDS011;16104;48.642;9.008;2022-11-20T21:15:58;1.52;;;0.60;;
29006;SDS011;16104;48.642;9.008;2022-11-20T21:20:54;0.55;;;0.55;;
29006;SDS011;16104;48.642;9.008;2022-11-20T21:26:08;0.73;;;0.60;;
29006;SDS011;16104;48.642;9.008;2022-11-20T21:36:05;0.75;;;0.70;;
29006;SDS011;16104;48.642;9.008;2022-11-20T21:41:03;0.82;;;0.80;;
29006;SDS011;16104;48.642;9.008;2022-11-20T21:46:00;1.02;;;0.70;;
29006;SDS011;16104;48.642;9.008;2022-11-20T21:51:02;1.95;;;0.60;;
29006;SDS011;16104;48.642;9.008;2022-11-20T21:55:59;0.85;;;0.65;;
29006;SDS011;16104;48.642;9.008;2022-11-20T22:00:55;1.08;;;0.80;;
29006;SDS011;16104;48.642;9.008;2022-11-20T22:05:52;0.90;;;0.80;;
29006;SDS011;16104;48.642;9.008;2022-11-20T22:10:52;0.80;;;0.80;;
29006;SDS011;16104;48.642;9.008;2022-11-20T22:15:49;0.95;;;0.80;;
29006;SDS011;16104;48.642;9.008;2022-11-20T22:20:44;0.90;;;0.90;;
29006;SDS011;16104;48.642;9.008;2022-11-20T22:25:39;1.98;;;1.20;;
29006;SDS011;16104;48.642;9.008;2022-11-20T22:30:35;1.33;;;1.00;;
29006;SDS011;16104;48.642;9.008;2022-11-20T22:35:31;1.48;;;0.98;;
29006;SDS011;16104;48.642;9.008;2022-11-20T22:40:26;1.40;;;0.80;;
29006;SDS011;16104;48.642;9.008;2022-11-20T22:45:22;1.13;;;0.80;;
29006;SDS011;16104;48.642;9.008;2022-11-20T22:50:17;0.80;;;0.55;;
29006;SDS011;16104;48.642;9.008;2022-11-20T22:55:13;0.57;;;0.43;;
29006;SDS011;16104;48.642;9.008;2022-11-20T23:00:08;1.80;;;0.93;;
29006;SDS011;16104;48.642;9.008;2022-11-20T23:05:04;0.93;;;0.50;;
29006;SDS011;16104;48.642;9.008;2022-11-20T23:10:00;1.60;;;0.60;;
29006;SDS011;16104;48.642;9.008;2022-11-20T23:14:56;1.73;;;0.60;;
29006;SDS011;16104;48.642;9.008;2022-11-20T23:19:51;1.30;;;0.65;;
29006;SDS011;16104;48.642;9.008;2022-11-20T23:24:47;0.95;;;0.65;;
29006;SDS011;16104;48.642;9.008;2022-11-20T23:29:42;0.75;;;0.60;;
29006;SDS011;16104;48.642;9.008;2022-11-20T23:34:38;0.50;;;0.50;;
29006;SDS011;16104;48.642;9.008;2022-11-20T23:39:33;1.13;;;0.60;;
29006;SDS011;16104;48.642;9.008;2022-11-20T23:44:29;0.70;;;0.60;;
29006;SDS011;16104;48.642;9.008;2022-11-20T23:49:24;1.02;;;0.47;;
29006;SDS011;16104;48.642;9.008;2022-11-20T23:54:20;0.70;;;0.50;;
29006;SDS011;16104;48.642;9.008;2022-11-20T23:59:15;0.30;;;0.30;;
